createdAt,value
2019-01-20T00:01:37.745Z,98996.62
2019-01-20T00:04:06.724Z,99003.84
2019-01-20T00:06:34.520Z,99007.71
2019-01-20T00:09:02.820Z,99003.03
2019-01-20T00:11:30.946Z,98983.48
2019-01-20T00:13:59.372Z,99000.25
2019-01-20T00:16:27.493Z,99011.05
2019-01-20T00:18:57.706Z,98964.69
2019-01-20T00:21:26.077Z,98998.45
2019-01-20T00:23:53.985Z,98999.81
2019-01-20T00:26:23.393Z,99000.99
2019-01-20T00:28:51.805Z,98993.98
2019-01-20T00:31:19.600Z,99003.64
2019-01-20T00:33:48.172Z,99002.64
2019-01-20T00:36:16.149Z,98992.72
2019-01-20T00:38:44.482Z,98996.98
2019-01-20T00:41:13.171Z,98974.95
2019-01-20T00:43:41.976Z,98957.13
2019-01-20T00:46:11.894Z,99000.36
2019-01-20T00:48:40.612Z,99003.46
2019-01-20T00:51:09.767Z,99004.63
2019-01-20T00:53:38.045Z,98964.67
2019-01-20T00:56:07.827Z,99001.72
2019-01-20T00:58:35.726Z,98975.79
2019-01-20T01:01:04.283Z,98999.35
2019-01-20T01:03:32.973Z,99006.09
2019-01-20T01:06:01.089Z,98981.34
2019-01-20T01:08:29.039Z,98994.87
2019-01-20T01:10:57.282Z,99002.98
2019-01-20T01:13:25.051Z,99003.75
2019-01-20T01:15:53.294Z,99004.48
2019-01-20T01:18:21.822Z,99003.11
2019-01-20T01:20:50.688Z,99006.01
2019-01-20T01:23:18.954Z,99008.88
2019-01-20T01:25:47.123Z,99002.27
2019-01-20T01:28:15.421Z,99000.27
2019-01-20T01:30:43.776Z,99005.50
2019-01-20T01:33:12.075Z,99004.52
2019-01-20T01:35:40.389Z,98999.02
2019-01-20T01:38:08.996Z,98989.61
2019-01-20T01:40:37.040Z,98992.45
2019-01-20T01:43:05.081Z,98974.38
2019-01-20T01:45:33.084Z,98955.08
2019-01-20T01:48:02.076Z,98989.53
2019-01-20T01:50:30.321Z,98964.34
2019-01-20T01:52:59.174Z,98987.52
2019-01-20T01:55:27.548Z,98986.50
2019-01-20T01:57:55.649Z,98988.08
2019-01-20T02:00:23.967Z,98921.85
2019-01-20T02:02:52.139Z,98959.67
2019-01-20T02:05:20.334Z,98979.57
2019-01-20T02:07:48.356Z,98982.44
2019-01-20T02:10:19.167Z,99021.88
2019-01-20T02:12:47.248Z,98980.41
2019-01-20T02:15:16.376Z,98982.55
2019-01-20T02:17:45.359Z,98980.66
2019-01-20T02:20:15.391Z,98960.05
2019-01-20T02:22:43.527Z,98989.44
2019-01-20T02:25:11.767Z,98981.48
2019-01-20T02:27:39.845Z,98981.66
2019-01-20T02:30:12.204Z,98985.53
2019-01-20T02:32:40.563Z,98979.52
2019-01-20T02:35:08.782Z,98983.44
2019-01-20T02:37:37.677Z,98984.59
2019-01-20T02:40:06.044Z,98938.66
2019-01-20T02:42:34.417Z,98980.55
2019-01-20T02:45:03.361Z,98980.75
2019-01-20T02:47:31.395Z,98982.09
2019-01-20T02:49:59.296Z,98980.68
2019-01-20T02:52:27.615Z,98980.27
2019-01-20T02:54:55.672Z,98980.83
2019-01-20T02:57:23.711Z,98981.02
2019-01-20T02:59:52.165Z,98911.74
2019-01-20T03:02:20.185Z,98976.79
2019-01-20T03:04:48.452Z,98979.30
2019-01-20T03:07:16.952Z,98981.98
2019-01-20T03:09:45.127Z,98983.31
2019-01-20T03:12:13.277Z,98977.88
2019-01-20T03:14:41.755Z,98979.42
2019-01-20T03:17:09.809Z,98953.90
2019-01-20T03:19:38.169Z,98973.03
2019-01-20T03:22:06.893Z,98972.30
2019-01-20T03:24:35.255Z,98972.09
2019-01-20T03:27:03.319Z,98976.12
2019-01-20T03:29:31.728Z,98972.98
2019-01-20T03:31:59.692Z,98974.88
2019-01-20T03:34:27.735Z,98975.23
2019-01-20T03:36:55.750Z,98973.47
2019-01-20T03:39:23.828Z,98972.45
2019-01-20T03:41:51.769Z,98972.01
2019-01-20T03:44:20.163Z,98973.28
2019-01-20T03:46:48.532Z,98971.12
2019-01-20T03:49:16.870Z,99004.66
2019-01-20T03:51:45.593Z,98978.72
2019-01-20T03:54:15.104Z,98955.16
2019-01-20T03:56:43.736Z,98913.56
2019-01-20T03:59:13.116Z,98972.86
2019-01-20T04:01:42.473Z,98972.16
2019-01-20T04:04:12.826Z,98972.05
2019-01-20T04:06:41.179Z,98966.67
2019-01-20T04:09:09.136Z,98964.39
2019-01-20T04:11:37.314Z,98893.33
2019-01-20T04:14:05.842Z,98734.31
2019-01-20T04:16:34.460Z,98971.68
2019-01-20T04:19:03.109Z,98975.26
2019-01-20T04:21:31.039Z,98944.41
2019-01-20T04:23:58.990Z,98980.50
2019-01-20T04:26:26.907Z,99031.16
2019-01-20T04:28:55.148Z,98973.83
2019-01-20T04:31:22.956Z,98974.22
2019-01-20T04:33:50.788Z,98962.28
2019-01-20T04:36:18.864Z,98971.94
2019-01-20T04:38:46.637Z,98965.32
2019-01-20T04:41:14.420Z,98962.73
2019-01-20T04:43:42.809Z,98966.16
2019-01-20T04:46:11.660Z,98964.25
2019-01-20T04:48:39.551Z,98962.33
2019-01-20T04:51:07.895Z,98962.20
2019-01-20T04:53:36.211Z,98961.64
2019-01-20T04:56:04.732Z,98966.67
2019-01-20T04:58:32.528Z,98969.69
2019-01-20T05:01:00.302Z,98973.09
2019-01-20T05:03:28.235Z,98976.26
2019-01-20T05:05:56.976Z,98973.30
2019-01-20T05:08:25.190Z,98972.87
2019-01-20T05:10:53.361Z,98696.05
2019-01-20T05:13:21.661Z,98977.35
2019-01-20T05:15:49.805Z,98980.08
2019-01-20T05:18:17.780Z,98982.59
2019-01-20T05:20:45.745Z,98982.19
2019-01-20T05:23:14.021Z,98896.48
2019-01-20T05:25:41.730Z,98893.54
2019-01-20T05:28:09.925Z,98987.12
2019-01-20T05:30:38.550Z,98994.00
2019-01-20T05:33:07.056Z,98986.20
2019-01-20T05:35:34.817Z,98988.83
2019-01-20T05:38:03.156Z,98988.04
2019-01-20T05:40:31.109Z,98995.48
2019-01-20T05:42:59.245Z,98995.65
2019-01-20T05:45:27.722Z,98990.77
2019-01-20T05:47:56.048Z,98967.56
2019-01-20T05:50:23.966Z,98986.09
2019-01-20T05:52:52.453Z,98985.73
2019-01-20T05:55:20.751Z,98991.80
2019-01-20T05:57:48.586Z,98992.22
2019-01-20T06:00:22.608Z,98990.80
2019-01-20T06:02:50.863Z,98997.06
2019-01-20T06:05:18.977Z,99000.36
2019-01-20T06:07:47.503Z,98993.94
2019-01-20T06:10:22.544Z,98992.26
2019-01-20T06:12:54.242Z,98959.82
2019-01-20T06:15:20.000Z,99001.73
2019-01-20T06:17:48.477Z,98953.20
2019-01-20T06:20:16.663Z,99000.91
2019-01-20T06:22:45.103Z,99003.19
2019-01-20T06:25:14.120Z,98937.42
2019-01-20T06:27:43.607Z,98998.77
2019-01-20T06:30:17.401Z,98959.34
2019-01-20T06:32:45.985Z,98975.88
2019-01-20T06:35:15.632Z,99007.39
2019-01-20T06:37:47.512Z,99009.06
2019-01-20T06:40:15.693Z,99010.98
2019-01-20T06:42:46.146Z,99011.96
2019-01-20T06:45:15.276Z,99018.71
2019-01-20T06:47:47.696Z,98975.19
2019-01-20T06:50:16.759Z,99019.86
2019-01-20T06:52:46.548Z,98938.30
2019-01-20T06:55:14.615Z,99025.13
2019-01-20T06:57:45.173Z,99028.30
2019-01-20T07:00:15.440Z,99034.76
2019-01-20T07:02:43.454Z,99041.64
2019-01-20T07:05:12.202Z,99048.00
2019-01-20T07:07:40.743Z,99024.50
2019-01-20T07:10:09.036Z,98989.12
2019-01-20T07:12:37.324Z,99055.13
2019-01-20T07:15:08.082Z,98927.08
2019-01-20T07:17:35.838Z,99062.53
2019-01-20T07:20:06.084Z,99102.22
2019-01-20T07:22:34.367Z,99063.37
2019-01-20T07:25:03.008Z,99048.66
2019-01-20T07:27:32.130Z,99024.59
2019-01-20T07:30:00.775Z,99072.81
2019-01-20T07:32:29.028Z,99116.84
2019-01-20T07:34:57.154Z,99084.50
2019-01-20T07:37:26.141Z,99072.43
2019-01-20T07:39:54.777Z,99079.28
2019-01-20T07:42:24.042Z,99076.66
2019-01-20T07:44:51.912Z,99087.95
2019-01-20T07:47:19.889Z,99085.69
2019-01-20T07:49:48.830Z,99093.80
2019-01-20T07:52:18.442Z,99090.80
2019-01-20T07:54:47.025Z,99100.45
2019-01-20T07:57:14.828Z,99095.64
2019-01-20T07:59:45.648Z,99046.91
2019-01-20T08:02:14.348Z,99101.51
2019-01-20T08:04:45.378Z,99109.09
2019-01-20T08:07:13.526Z,99112.98
2019-01-20T08:09:41.407Z,99103.59
2019-01-20T08:12:10.168Z,99117.86
2019-01-20T08:14:38.153Z,99120.98
2019-01-20T08:17:11.298Z,99055.94
2019-01-20T08:19:38.314Z,99103.63
2019-01-20T08:22:10.931Z,99124.06
2019-01-20T08:24:41.402Z,99135.44
2019-01-20T08:27:13.033Z,99131.12
2019-01-20T08:29:44.102Z,99099.19
2019-01-20T08:32:15.103Z,99136.34
2019-01-20T08:34:44.270Z,99132.97
2019-01-20T08:37:14.797Z,98968.97
2019-01-20T08:39:43.060Z,99132.00
2019-01-20T08:42:13.648Z,99139.86
2019-01-20T08:44:44.261Z,99142.93
2019-01-20T08:48:18.536Z,99074.78
2019-01-20T08:50:51.825Z,99139.37
2019-01-20T08:53:21.996Z,99149.94
2019-01-20T08:55:54.990Z,98880.11
2019-01-20T08:58:23.516Z,99149.03
2019-01-20T09:00:57.401Z,99153.16
2019-01-20T09:03:30.287Z,99127.05
2019-01-20T09:06:01.428Z,99153.23
2019-01-20T09:08:38.026Z,99155.52
2019-01-20T09:11:07.509Z,99153.73
2019-01-20T09:13:40.233Z,99157.95
2019-01-20T09:16:08.549Z,99166.39
2019-01-20T09:18:37.335Z,99170.19
2019-01-20T09:21:05.767Z,99170.02
2019-01-20T09:23:33.598Z,99171.49
2019-01-20T09:26:05.183Z,99164.50
2019-01-20T09:28:36.102Z,99166.09
2019-01-20T09:31:09.200Z,99173.47
2019-01-20T09:33:38.470Z,99175.83
2019-01-20T09:36:13.690Z,99178.31
2019-01-20T09:38:42.086Z,99174.95
2019-01-20T09:41:11.241Z,99178.36
2019-01-20T09:43:47.169Z,99189.45
2019-01-20T09:46:09.736Z,99098.02
2019-01-20T09:48:37.877Z,99126.05
2019-01-20T09:51:06.368Z,98923.01
2019-01-20T09:53:34.502Z,99179.18
2019-01-20T09:56:04.168Z,99181.34
2019-01-20T09:58:32.719Z,99178.50
2019-01-20T10:01:05.797Z,99181.81
2019-01-20T10:03:35.330Z,99186.11
2019-01-20T10:06:06.866Z,99068.30
2019-01-20T10:08:39.945Z,99181.53
2019-01-20T10:11:08.874Z,99184.11
2019-01-20T10:13:37.689Z,99177.34
2019-01-20T10:16:06.426Z,99190.59
2019-01-20T10:18:35.323Z,99169.05
2019-01-20T10:21:05.662Z,99189.36
2019-01-20T10:23:39.155Z,99187.85
2019-01-20T10:26:11.410Z,99192.14
2019-01-20T10:28:46.892Z,99183.98
2019-01-20T10:31:15.589Z,99181.64
2019-01-20T10:33:43.600Z,99133.00
2019-01-20T10:36:13.150Z,99191.44
2019-01-20T10:38:42.235Z,99185.42
2019-01-20T10:41:12.387Z,99189.36
2019-01-20T10:43:41.787Z,99187.61
2019-01-20T10:46:16.967Z,99188.02
2019-01-20T10:48:45.432Z,99216.61
2019-01-20T10:51:13.828Z,99194.85
2019-01-20T10:56:20.243Z,99195.64
2019-01-20T10:58:48.209Z,99198.39
2019-01-20T11:01:16.620Z,99193.54
2019-01-20T11:03:46.462Z,99200.16
2019-01-20T11:06:14.567Z,99224.86
2019-01-20T11:08:43.929Z,99197.05
2019-01-20T11:11:16.179Z,99197.05
2019-01-20T11:13:46.009Z,99201.52
2019-01-20T11:16:14.349Z,99199.19
2019-01-20T11:18:42.375Z,99204.03
2019-01-20T11:21:10.670Z,99210.45
2019-01-20T11:23:40.460Z,99204.05
2019-01-20T11:26:08.538Z,99206.77
2019-01-20T11:28:38.219Z,99206.56
2019-01-20T11:31:07.280Z,99200.14
2019-01-20T11:33:35.311Z,99203.05
2019-01-20T11:36:05.444Z,99180.67
2019-01-20T11:38:34.088Z,99204.42
2019-01-20T11:41:03.153Z,99233.82
2019-01-20T11:43:31.248Z,99162.41
2019-01-20T11:46:00.349Z,99174.86
2019-01-20T11:48:34.345Z,99205.99
2019-01-20T11:51:04.509Z,99185.77
2019-01-20T11:53:33.952Z,99165.89
2019-01-20T11:56:04.701Z,99200.54
2019-01-20T11:58:34.372Z,99199.36
2019-01-20T12:01:02.751Z,99196.23
2019-01-20T12:03:31.578Z,99196.80
2019-01-20T12:05:59.493Z,99194.83
2019-01-20T12:08:30.753Z,99190.32
2019-01-20T12:10:55.656Z,99193.62
2019-01-20T12:13:27.677Z,99191.67
2019-01-20T12:15:55.809Z,99192.63
2019-01-20T12:18:23.915Z,99194.97
2019-01-20T12:20:53.505Z,99136.68
2019-01-20T12:23:21.583Z,99192.66
2019-01-20T12:25:49.948Z,99168.53
2019-01-20T12:28:18.483Z,99196.17
2019-01-20T12:30:48.159Z,99219.17
2019-01-20T12:33:18.473Z,99190.14
2019-01-20T12:35:47.023Z,99167.77
2019-01-20T12:38:14.980Z,99187.58
2019-01-20T12:40:45.937Z,99187.75
2019-01-20T12:43:13.946Z,99031.68
2019-01-20T12:45:42.913Z,99191.65
2019-01-20T12:48:11.216Z,99211.71
2019-01-20T12:50:39.694Z,99171.78
2019-01-20T12:53:07.529Z,99189.08
2019-01-20T12:55:38.510Z,99188.87
2019-01-20T12:58:06.942Z,99180.69
2019-01-20T13:00:35.755Z,99145.33
2019-01-20T13:03:04.624Z,99187.11
2019-01-20T13:05:32.773Z,99178.56
2019-01-20T13:08:02.673Z,99189.64
2019-01-20T13:10:31.663Z,99166.48
2019-01-20T13:13:01.105Z,99133.63
2019-01-20T13:15:29.909Z,99188.27
2019-01-20T13:17:59.148Z,99189.02
2019-01-20T13:20:28.052Z,99187.86
2019-01-20T13:22:57.646Z,99163.92
2019-01-20T13:25:28.329Z,99186.50
2019-01-20T13:27:57.063Z,99187.48
2019-01-20T13:30:27.114Z,99193.92
2019-01-20T13:32:55.671Z,99191.41
2019-01-20T13:35:24.647Z,99116.37
2019-01-20T13:37:56.294Z,99192.97
2019-01-20T13:40:28.775Z,99192.78
2019-01-20T13:42:56.672Z,99188.70
2019-01-20T13:45:24.782Z,99195.34
2019-01-20T13:47:56.634Z,99196.72
2019-01-20T13:50:24.853Z,99190.65
2019-01-20T13:52:55.470Z,99200.41
2019-01-20T13:55:23.958Z,99195.53
2019-01-20T13:57:52.801Z,99198.84
2019-01-20T14:00:22.245Z,99200.81
2019-01-20T14:02:51.054Z,99204.12
2019-01-20T14:05:22.787Z,99216.28
2019-01-20T14:07:52.399Z,99205.70
2019-01-20T14:10:21.433Z,99203.16
2019-01-20T14:12:50.032Z,99204.52
2019-01-20T14:15:19.722Z,99203.73
2019-01-20T14:17:47.728Z,99209.19
2019-01-20T14:20:20.173Z,99213.11
2019-01-20T14:22:48.460Z,99217.77
2019-01-20T14:25:20.308Z,99173.23
2019-01-20T14:27:48.705Z,99211.75
2019-01-20T14:30:19.076Z,99214.69
2019-01-20T14:32:47.527Z,99220.72
2019-01-20T14:35:16.143Z,99223.84
2019-01-20T14:37:44.029Z,99218.97
2019-01-20T14:40:13.300Z,99217.61
2019-01-20T14:42:41.461Z,99220.15
2019-01-20T14:45:09.964Z,99220.73
2019-01-20T14:47:39.831Z,99222.09
2019-01-20T14:50:09.360Z,99225.42
2019-01-20T14:52:37.294Z,99201.47
2019-01-20T14:55:07.220Z,99233.40
2019-01-20T14:57:36.155Z,99226.58
2019-01-20T15:00:06.807Z,99231.67
2019-01-20T15:02:34.670Z,99234.97
2019-01-20T15:05:03.800Z,99235.77
2019-01-20T15:07:32.496Z,99233.04
2019-01-20T15:10:00.524Z,99239.85
2019-01-20T15:12:28.781Z,99237.88
2019-01-20T15:17:34.531Z,99243.37
2019-01-20T15:20:03.335Z,99247.84
2019-01-20T15:22:31.504Z,99248.23
2019-01-20T15:24:59.655Z,99227.39
2019-01-20T15:27:27.470Z,99211.06
2019-01-20T15:29:55.218Z,99252.89
2019-01-20T15:32:23.528Z,99220.00
2019-01-20T15:34:51.266Z,99266.50
2019-01-20T15:37:20.628Z,99258.88
2019-01-20T15:39:49.246Z,99263.40
2019-01-20T15:42:17.419Z,99228.53
2019-01-20T15:44:45.980Z,99271.16
2019-01-20T15:47:14.475Z,99270.00
2019-01-20T15:49:42.677Z,99232.61
2019-01-20T15:52:10.768Z,99278.92
2019-01-20T15:54:39.032Z,99336.68
2019-01-20T15:57:07.204Z,99281.84
2019-01-20T15:59:35.282Z,99284.16
2019-01-20T16:02:05.351Z,99281.42
2019-01-20T16:04:33.359Z,99286.45
2019-01-20T16:07:01.736Z,99285.07
2019-01-20T16:09:31.237Z,99288.56
2019-01-20T16:11:59.034Z,99294.78
2019-01-20T16:14:27.081Z,99295.73
2019-01-20T16:16:55.467Z,99302.52
2019-01-20T16:19:23.949Z,99297.09
2019-01-20T16:21:51.688Z,99312.81
2019-01-20T16:24:19.994Z,99313.40
2019-01-20T16:26:48.973Z,99318.95
2019-01-20T16:29:21.212Z,99318.22
2019-01-20T16:31:49.824Z,99310.81
2019-01-20T16:34:19.389Z,99321.86
2019-01-20T16:36:48.013Z,99318.14
2019-01-20T16:39:17.193Z,99322.79
2019-01-20T16:41:45.189Z,99322.02
2019-01-20T16:44:13.601Z,99329.19
2019-01-20T16:46:42.692Z,99331.50
2019-01-20T16:49:12.073Z,99335.17
2019-01-20T16:51:40.066Z,99272.95
2019-01-20T16:54:09.060Z,99342.52
2019-01-20T16:56:39.214Z,99343.27
2019-01-20T16:59:09.305Z,99344.41
2019-01-20T17:01:37.368Z,99284.11
2019-01-20T17:04:07.583Z,99352.90
2019-01-20T17:06:36.167Z,99389.57
2019-01-20T17:09:10.067Z,99358.30
2019-01-20T17:11:38.660Z,99344.59
2019-01-20T17:14:06.528Z,99355.55
2019-01-20T17:16:34.893Z,99364.44
2019-01-20T17:19:03.296Z,99316.07
2019-01-20T17:21:31.352Z,99358.78
2019-01-20T17:24:04.354Z,99355.26
2019-01-20T17:26:32.793Z,99364.56
2019-01-20T17:29:02.277Z,99364.72
2019-01-20T17:31:30.512Z,99376.69
2019-01-20T17:33:59.712Z,99370.45
2019-01-20T17:36:28.604Z,99375.45
2019-01-20T17:38:57.689Z,99383.77
2019-01-20T17:41:27.286Z,99267.34
2019-01-20T17:43:56.766Z,99162.11
2019-01-20T17:46:24.806Z,99390.78
2019-01-20T17:48:53.448Z,99387.62
2019-01-20T17:51:21.762Z,99395.77
2019-01-20T17:53:49.765Z,99431.80
2019-01-20T17:56:17.854Z,99403.88
2019-01-20T17:58:46.420Z,99397.26
2019-01-20T18:01:14.619Z,99409.88
2019-01-20T18:03:42.473Z,99390.33
2019-01-20T18:06:11.295Z,99418.77
2019-01-20T18:08:41.639Z,99412.36
2019-01-20T18:11:09.892Z,99420.85
2019-01-20T18:13:39.909Z,99396.78
2019-01-20T18:16:07.975Z,99423.13
2019-01-20T18:18:36.925Z,99417.48
2019-01-20T18:21:06.546Z,99422.27
2019-01-20T18:23:35.526Z,99424.77
2019-01-20T18:26:05.313Z,99432.72
2019-01-20T18:28:33.460Z,99439.08
2019-01-20T18:31:02.532Z,99443.30
2019-01-20T18:33:30.893Z,99425.25
2019-01-20T18:36:04.965Z,99446.66
2019-01-20T18:38:32.992Z,99404.38
2019-01-20T18:41:00.819Z,99455.10
2019-01-20T18:43:29.085Z,99452.00
2019-01-20T18:46:01.617Z,99450.61
2019-01-20T18:48:25.901Z,99464.89
2019-01-20T18:50:54.147Z,99461.77
2019-01-20T18:53:22.344Z,99459.59
2019-01-20T18:55:51.463Z,99466.94
2019-01-20T18:58:20.446Z,99463.63
2019-01-20T19:00:51.097Z,99462.45
2019-01-20T19:03:19.992Z,99440.48
2019-01-20T19:05:48.550Z,99474.38
2019-01-20T19:08:16.585Z,99473.33
2019-01-20T19:10:44.895Z,99482.94
2019-01-20T19:13:13.167Z,99483.62
2019-01-20T19:15:41.328Z,99486.84
2019-01-20T19:18:09.842Z,99489.91
2019-01-20T19:20:40.107Z,99487.41
2019-01-20T19:23:09.524Z,99497.85
2019-01-20T19:25:38.778Z,99499.97
2019-01-20T19:28:09.068Z,99512.52
2019-01-20T19:30:36.901Z,99514.56
2019-01-20T19:33:06.190Z,99493.22
2019-01-20T19:35:34.403Z,99507.10
2019-01-20T19:38:04.482Z,99516.03
2019-01-20T19:40:33.943Z,99517.55
2019-01-20T19:43:02.103Z,99511.73
2019-01-20T19:45:29.911Z,99512.69
2019-01-20T19:47:59.962Z,99513.09
2019-01-20T19:50:28.225Z,99521.05
2019-01-20T19:52:56.273Z,99522.08
2019-01-20T19:55:36.921Z,99438.36
2019-01-20T19:58:05.269Z,99521.86
2019-01-20T20:00:33.682Z,99531.84
2019-01-20T20:03:01.908Z,99527.50
2019-01-20T20:05:30.643Z,99528.91
2019-01-20T20:07:59.028Z,99532.48
2019-01-20T20:10:27.773Z,99528.64
2019-01-20T20:12:56.686Z,99529.12
2019-01-20T20:15:27.351Z,99535.17
2019-01-20T20:17:56.620Z,99514.81
2019-01-20T20:20:25.483Z,99538.88
2019-01-20T20:22:53.944Z,99536.38
2019-01-20T20:25:22.531Z,99543.00
2019-01-20T20:27:50.848Z,99542.83
2019-01-20T20:30:24.528Z,99544.75
2019-01-20T20:32:54.341Z,99525.36
2019-01-20T20:35:22.563Z,99554.22
2019-01-20T20:37:50.784Z,99557.39
2019-01-20T20:40:19.835Z,99548.88
2019-01-20T20:42:49.626Z,99550.44
2019-01-20T20:45:19.763Z,99449.25
2019-01-20T20:47:50.422Z,99560.30
2019-01-20T20:50:18.974Z,99558.91
2019-01-20T20:52:48.617Z,99556.56
2019-01-20T20:55:16.584Z,99600.13
2019-01-20T20:57:44.980Z,99557.58
2019-01-20T21:00:15.529Z,99352.89
2019-01-20T21:02:43.850Z,99561.73
2019-01-20T21:05:12.554Z,99566.70
2019-01-20T21:07:40.951Z,99563.53
2019-01-20T21:10:12.167Z,99361.44
2019-01-20T21:12:39.924Z,99573.09
2019-01-20T21:15:09.676Z,99570.55
2019-01-20T21:17:37.909Z,99569.95
2019-01-20T21:20:09.158Z,99574.98
2019-01-20T21:22:37.098Z,99575.41
2019-01-20T21:25:06.940Z,99573.13
2019-01-20T21:27:36.235Z,99574.61
2019-01-20T21:30:06.035Z,99574.98
2019-01-20T21:32:34.209Z,99571.64
2019-01-20T21:35:03.370Z,99553.53
2019-01-20T21:37:31.209Z,99580.80
2019-01-20T21:39:59.213Z,99578.75
2019-01-20T21:42:27.053Z,99587.22
2019-01-20T21:44:55.085Z,99545.84
2019-01-20T21:47:22.923Z,99589.83
2019-01-20T21:49:51.131Z,99587.45
2019-01-20T21:52:18.980Z,99595.94
2019-01-20T21:54:46.754Z,99599.97
2019-01-20T21:57:14.977Z,99602.05
2019-01-20T21:59:43.534Z,99551.91
2019-01-20T22:02:11.572Z,99610.91
2019-01-20T22:04:40.539Z,99608.55
2019-01-20T22:07:08.535Z,99614.47
2019-01-20T22:09:36.867Z,99610.09
2019-01-20T22:12:04.901Z,99615.05
2019-01-20T22:14:34.161Z,99684.78
2019-01-20T22:17:03.198Z,99615.36
2019-01-20T22:19:34.338Z,99607.69
2019-01-20T22:22:02.825Z,99612.15
2019-01-20T22:24:31.003Z,99615.34
2019-01-20T22:26:59.973Z,99619.52
2019-01-20T22:29:27.994Z,99621.16
2019-01-20T22:31:56.062Z,99624.70
2019-01-20T22:34:24.190Z,99625.22
2019-01-20T22:36:52.485Z,99628.44
2019-01-20T22:39:20.911Z,99632.62
2019-01-20T22:41:49.009Z,99630.95
2019-01-20T22:44:16.915Z,99626.39
2019-01-20T22:46:45.497Z,99631.41
2019-01-20T22:49:13.514Z,99638.50
2019-01-20T22:51:41.390Z,99637.94
2019-01-20T22:54:10.484Z,99635.69
2019-01-20T22:56:39.142Z,99638.47
2019-01-20T22:59:07.290Z,99641.28
2019-01-20T23:01:35.845Z,99640.05
2019-01-20T23:04:04.329Z,99554.01
2019-01-20T23:06:32.184Z,99639.91
2019-01-20T23:09:06.552Z,99643.97
2019-01-20T23:11:28.554Z,99647.88
2019-01-20T23:13:56.358Z,99650.42
2019-01-20T23:16:25.745Z,99646.12
2019-01-20T23:18:53.910Z,99654.16
2019-01-20T23:21:21.877Z,99654.81
2019-01-20T23:23:52.493Z,99655.88
2019-01-20T23:26:19.439Z,99660.00
2019-01-20T23:28:49.382Z,99659.58
2019-01-20T23:31:17.840Z,99662.01
2019-01-20T23:33:45.755Z,99660.84
2019-01-20T23:36:14.467Z,99661.59
2019-01-20T23:38:43.831Z,99656.70
2019-01-20T23:41:15.895Z,99654.51
2019-01-20T23:43:44.125Z,99658.83
2019-01-20T23:46:15.394Z,99486.62
2019-01-20T23:48:43.654Z,99663.58
2019-01-20T23:51:12.121Z,99671.69
2019-01-20T23:53:40.317Z,99670.27
2019-01-20T23:56:09.768Z,99662.97
2019-01-20T23:58:39.509Z,99663.31
